CYDP

Nain Airport

Nain, Canada
METAR CYDP 212300Z 33009G18KT 15SM SCT210 BKN220 M03/M11 A3008 RMK CI4CS1 LAST STAFFED OB/ NEXT 220800 SLP188
Observed Flight Rules
Apr-21 @ 23:00 UTC (8 hours ago) Visual Flight Rules
Wind Visibility Clouds
330° at 9 knots
 Gusting to 18 knots
15 miles
  • Scattered at 21,000' AGL
  • Broken at 22,000' AGL
Temperatures Readings
Current -3°C / 27°F
Dewpoint -11°C / 12°F
Humidity 54%
Altimeter 30.08" Hg
Pressure 1018.8 hPa
Elevation 7
METAR CYDP 212300Z 33009G18KT 15SM SCT210 BKN220 M03/M11 A3008 RMK CI4CS1 LAST STAFFED OB/ NEXT 220800 SLP188
Observed Flight Rules
Apr-21 @ 23:00 UTC
(8 hours ago)
VFR
Wind Visibility
330° at 9 knots
 Gusting to 18 knots
15 miles
Clouds
  • Scattered at 21,000' AGL
  • Broken at 22,000' AGL
Temperature Dewpoint
-3°C / 27°F -11°C / 12°F
Humidity Altimeter Pressure
54% 30.08" Hg 1018.8 hPa